createdAt,value
2023-01-20T00:00:11.835Z,74.70
2023-01-20T00:02:42.069Z,88.03
2023-01-20T00:05:11.484Z,80.77
2023-01-20T00:07:40.585Z,73.03
2023-01-20T00:10:10.849Z,71.13
2023-01-20T00:12:39.605Z,68.83
2023-01-20T00:15:10.428Z,71.33
2023-01-20T00:17:39.221Z,70.03
2023-01-20T00:20:11.331Z,72.50
2023-01-20T00:22:42.541Z,61.93
2023-01-20T00:25:12.407Z,67.80
2023-01-20T00:27:41.308Z,71.47
2023-01-20T00:30:11.567Z,77.23
2023-01-20T00:32:45.009Z,67.40
2023-01-20T00:35:15.710Z,77.13
2023-01-20T00:37:45.114Z,71.17
2023-01-20T00:40:14.261Z,75.97
2023-01-20T00:42:43.034Z,73.73
2023-01-20T00:45:12.896Z,71.90
2023-01-20T00:47:41.809Z,75.80
2023-01-20T00:50:11.614Z,74.33
2023-01-20T00:52:41.806Z,90.83
2023-01-20T00:55:53.771Z,72.37
2023-01-20T00:58:22.846Z,83.17
2023-01-20T01:00:53.128Z,74.37
2023-01-20T01:03:22.618Z,95.47
2023-01-20T01:09:06.898Z,92.07
2023-01-20T01:11:35.766Z,86.83
2023-01-20T01:14:04.757Z,84.60
2023-01-20T01:16:33.743Z,74.93
2023-01-20T01:19:02.687Z,73.63
2023-01-20T01:21:31.609Z,85.90
2023-01-20T01:24:00.414Z,80.20
2023-01-20T01:26:30.707Z,80.67
2023-01-20T01:28:59.536Z,73.10
2023-01-20T01:31:28.493Z,84.67
2023-01-20T01:33:57.443Z,74.53
2023-01-20T01:36:26.355Z,76.50
2023-01-20T01:38:59.099Z,70.90
2023-01-20T01:41:29.835Z,77.33
2023-01-20T01:44:08.584Z,70.07
2023-01-20T01:46:38.157Z,79.00
2023-01-20T01:49:10.277Z,67.07
2023-01-20T01:51:41.856Z,65.83
2023-01-20T01:54:14.285Z,68.13
2023-01-20T01:56:46.072Z,67.10
2023-01-20T01:59:16.659Z,76.73
2023-01-20T02:02:39.973Z,70.70
2023-01-20T02:05:17.216Z,67.30
2023-01-20T02:07:49.201Z,75.23
2023-01-20T02:10:18.710Z,92.87
2023-01-20T02:12:52.074Z,97.47
2023-01-20T02:15:26.161Z,91.13
2023-01-20T02:18:30.117Z,73.60
2023-01-20T02:21:39.384Z,69.43
2023-01-20T02:24:37.633Z,63.90
2023-01-20T02:27:11.528Z,66.03
2023-01-20T02:30:23.484Z,72.70
2023-01-20T02:32:58.412Z,61.93
2023-01-20T02:35:35.043Z,57.13
2023-01-20T02:38:15.276Z,64.93
2023-01-20T02:40:53.738Z,71.83
2023-01-20T02:43:28.935Z,69.07
2023-01-20T02:46:03.226Z,60.90
2023-01-20T02:48:40.012Z,64.70
2023-01-20T02:51:13.554Z,70.30
2023-01-20T02:53:49.633Z,71.20
2023-01-20T02:56:20.560Z,66.83
2023-01-20T02:58:52.253Z,72.97
2023-01-20T03:01:26.772Z,64.10
2023-01-20T03:04:01.099Z,68.13
2023-01-20T03:06:33.515Z,66.53
2023-01-20T03:09:04.276Z,63.73
2023-01-20T03:11:36.215Z,71.67
2023-01-20T03:14:08.286Z,65.27
2023-01-20T03:16:37.625Z,62.10
2023-01-20T03:19:08.063Z,67.00
2023-01-20T03:21:37.485Z,64.90
2023-01-20T03:24:07.559Z,65.13
2023-01-20T03:26:36.383Z,67.83
2023-01-20T03:29:07.754Z,61.67
2023-01-20T03:31:39.778Z,68.70
2023-01-20T03:34:13.788Z,64.63
2023-01-20T03:36:44.122Z,73.83
2023-01-20T03:39:13.345Z,79.97
2023-01-20T03:41:52.373Z,72.70
2023-01-20T03:44:26.742Z,74.77
2023-01-20T03:47:04.829Z,72.07
2023-01-20T03:49:40.358Z,78.90
2023-01-20T03:52:16.091Z,84.67
2023-01-20T03:54:49.208Z,70.60
2023-01-20T03:57:22.585Z,67.03
2023-01-20T03:59:53.754Z,75.33
2023-01-20T04:02:24.362Z,73.23
2023-01-20T04:04:56.089Z,86.97
2023-01-20T04:07:27.093Z,73.27
2023-01-20T04:09:59.587Z,82.67
2023-01-20T04:12:28.363Z,78.83
2023-01-20T04:14:57.043Z,77.83
2023-01-20T04:17:29.616Z,78.40
2023-01-20T04:20:10.653Z,82.60
2023-01-20T04:22:45.680Z,80.50
2023-01-20T04:25:18.953Z,89.63
2023-01-20T04:27:47.704Z,85.10
2023-01-20T04:30:16.985Z,92.77
2023-01-20T04:32:45.663Z,97.80
2023-01-20T04:35:19.379Z,86.03
2023-01-20T04:37:48.190Z,93.90
2023-01-20T04:40:17.120Z,94.10
2023-01-20T04:42:45.842Z,94.77
2023-01-20T04:45:17.939Z,86.53
2023-01-20T04:47:46.691Z,97.47
2023-01-20T04:50:17.299Z,76.40
2023-01-20T04:52:46.440Z,83.80
2023-01-20T04:55:15.679Z,88.20
2023-01-20T04:57:44.576Z,83.43
2023-01-20T05:00:18.801Z,92.10
2023-01-20T05:02:47.715Z,86.13
2023-01-20T05:05:18.153Z,76.73
2023-01-20T05:07:46.844Z,86.53
2023-01-20T05:10:15.596Z,78.57
2023-01-20T05:12:44.274Z,86.83
2023-01-20T05:15:13.489Z,93.67
2023-01-20T05:17:42.523Z,87.90
2023-01-20T05:20:12.877Z,97.93
2023-01-20T05:22:43.034Z,107.87
2023-01-20T05:25:11.855Z,94.20
2023-01-20T05:27:40.725Z,92.50
2023-01-20T05:30:10.865Z,89.77
2023-01-20T05:32:39.807Z,85.50
2023-01-20T05:35:10.001Z,101.73
2023-01-20T05:37:38.748Z,99.90
2023-01-20T05:40:10.735Z,83.73
2023-01-20T05:42:39.720Z,89.93
2023-01-20T05:45:10.410Z,93.43
2023-01-20T05:47:39.131Z,95.43
2023-01-20T05:50:08.920Z,88.20
2023-01-20T05:52:37.730Z,79.50
2023-01-20T05:55:07.096Z,84.23
2023-01-20T05:57:37.332Z,93.70
2023-01-20T06:00:11.050Z,78.97
2023-01-20T06:02:42.146Z,74.00
2023-01-20T06:05:14.922Z,81.10
2023-01-20T06:07:48.349Z,78.43
2023-01-20T06:10:22.353Z,79.70
2023-01-20T06:13:00.245Z,78.27
2023-01-20T06:15:52.099Z,76.70
2023-01-20T06:18:22.787Z,77.33
2023-01-20T06:20:55.676Z,84.63
2023-01-20T06:23:29.164Z,74.90
2023-01-20T06:26:08.197Z,82.57
2023-01-20T06:28:38.375Z,81.90
2023-01-20T06:31:09.066Z,101.47
2023-01-20T06:33:37.991Z,83.03
2023-01-20T06:36:08.059Z,78.37
2023-01-20T06:38:37.476Z,79.70
2023-01-20T06:41:10.832Z,82.90
2023-01-20T06:43:42.235Z,88.33
2023-01-20T06:46:14.563Z,100.00
2023-01-20T06:48:44.129Z,88.90
2023-01-20T06:51:14.734Z,88.97
2023-01-20T06:53:44.164Z,108.03
2023-01-20T06:56:14.149Z,112.67
2023-01-20T06:58:45.101Z,109.50
2023-01-20T07:01:15.701Z,98.23
2023-01-20T07:03:45.096Z,97.47
2023-01-20T07:06:19.075Z,88.77
2023-01-20T07:08:49.426Z,105.90
2023-01-20T07:11:18.449Z,93.10
2023-01-20T07:13:48.634Z,105.10
2023-01-20T07:16:18.436Z,96.97
2023-01-20T07:18:50.259Z,115.37
2023-01-20T07:21:19.633Z,90.13
2023-01-20T07:23:49.048Z,114.97
2023-01-20T07:26:19.679Z,102.97
2023-01-20T07:28:50.003Z,113.03
2023-01-20T07:31:20.401Z,119.13
2023-01-20T07:33:49.375Z,111.30
2023-01-20T07:36:18.933Z,110.73
2023-01-20T07:38:49.559Z,106.67
2023-01-20T07:41:20.238Z,102.13
2023-01-20T07:43:52.984Z,99.67
2023-01-20T07:46:22.076Z,107.20
2023-01-20T07:48:50.769Z,105.90
2023-01-20T07:51:19.696Z,96.87
2023-01-20T07:53:49.621Z,102.87
2023-01-20T07:56:20.005Z,98.00
2023-01-20T07:58:50.874Z,92.20
2023-01-20T08:01:21.437Z,106.53
2023-01-20T08:03:50.662Z,106.83
2023-01-20T08:06:21.167Z,109.53
2023-01-20T08:08:50.424Z,98.30
2023-01-20T08:11:20.573Z,107.53
2023-01-20T08:13:51.173Z,100.67
2023-01-20T08:16:20.548Z,94.17
2023-01-20T08:18:50.143Z,97.23
2023-01-20T08:21:21.730Z,90.93
2023-01-20T08:23:51.429Z,90.97
2023-01-20T08:26:21.032Z,87.63
2023-01-20T08:28:51.691Z,86.27
2023-01-20T08:31:24.777Z,83.17
2023-01-20T08:33:55.519Z,91.83
2023-01-20T08:36:27.432Z,86.97
2023-01-20T08:38:58.144Z,90.43
2023-01-20T08:41:29.495Z,86.93
2023-01-20T08:44:02.025Z,74.70
2023-01-20T08:46:30.844Z,76.23
2023-01-20T08:49:02.891Z,68.47
2023-01-20T08:51:33.624Z,71.97
2023-01-20T08:54:02.907Z,78.83
2023-01-20T08:56:32.304Z,74.67
2023-01-20T08:59:02.812Z,71.60
2023-01-20T09:01:33.829Z,83.50
2023-01-20T09:04:06.268Z,74.80
2023-01-20T09:06:49.432Z,75.43
2023-01-20T09:09:20.955Z,76.43
2023-01-20T09:11:52.211Z,74.87
2023-01-20T09:14:24.673Z,75.03
2023-01-20T09:17:00.165Z,74.77
2023-01-20T09:19:30.789Z,76.70
2023-01-20T09:22:00.116Z,79.43
2023-01-20T09:24:28.993Z,74.27
2023-01-20T09:26:58.272Z,77.33
2023-01-20T09:29:28.487Z,74.37
2023-01-20T09:31:59.284Z,66.23
2023-01-20T09:34:31.191Z,68.83
2023-01-20T09:37:21.629Z,64.10
2023-01-20T09:40:08.724Z,69.03
2023-01-20T09:43:09.472Z,66.53
2023-01-20T09:45:46.119Z,70.50
2023-01-20T09:48:37.757Z,60.43
2023-01-20T09:51:28.971Z,63.73
2023-01-20T09:54:03.524Z,57.67
2023-01-20T09:56:36.902Z,62.00
2023-01-20T09:59:12.798Z,57.03
2023-01-20T10:01:47.382Z,54.10
2023-01-20T10:04:21.049Z,57.73
2023-01-20T10:06:54.475Z,52.17
2023-01-20T10:09:32.754Z,53.50
2023-01-20T10:12:08.840Z,52.37
2023-01-20T10:14:43.381Z,54.80
2023-01-20T10:17:19.255Z,56.47
2023-01-20T10:19:56.486Z,53.57
2023-01-20T10:22:31.256Z,49.93
2023-01-20T10:25:06.914Z,54.67
2023-01-20T10:27:44.881Z,52.47
2023-01-20T10:30:16.126Z,48.70
2023-01-20T10:32:54.821Z,44.03
2023-01-20T10:35:27.546Z,47.20
2023-01-20T10:37:58.893Z,45.70
2023-01-20T10:40:36.673Z,50.77
2023-01-20T10:43:13.274Z,49.33
2023-01-20T10:46:02.136Z,49.97
2023-01-20T10:49:02.317Z,50.50
2023-01-20T10:51:40.515Z,45.27
2023-01-20T10:54:23.618Z,42.80
2023-01-20T10:56:54.802Z,36.13
2023-01-20T10:59:30.633Z,40.53
2023-01-20T11:02:11.923Z,41.13
2023-01-20T11:04:43.537Z,42.37
2023-01-20T11:07:18.151Z,44.67
2023-01-20T11:09:49.399Z,48.87
2023-01-20T11:12:20.472Z,52.00
2023-01-20T11:14:50.281Z,50.03
2023-01-20T11:17:20.889Z,56.60
2023-01-20T11:19:53.712Z,39.30
2023-01-20T11:22:31.772Z,37.03
2023-01-20T11:25:02.156Z,40.10
2023-01-20T11:27:36.435Z,44.93
2023-01-20T11:30:10.081Z,46.07
2023-01-20T11:32:40.713Z,48.70
2023-01-20T11:35:24.898Z,41.10
2023-01-20T11:37:54.111Z,35.53
2023-01-20T11:40:25.353Z,36.23
2023-01-20T11:42:55.312Z,33.83
2023-01-20T11:45:31.773Z,44.00
2023-01-20T11:48:06.958Z,32.20
2023-01-20T11:50:41.423Z,32.03
2023-01-20T11:53:19.676Z,34.27
2023-01-20T11:55:54.351Z,36.70
2023-01-20T11:58:25.451Z,28.20
2023-01-20T12:01:01.163Z,22.13
2023-01-20T12:03:52.067Z,22.53
2023-01-20T12:06:27.161Z,21.23
2023-01-20T12:09:00.890Z,24.50
2023-01-20T12:11:35.595Z,21.40
2023-01-20T12:14:28.876Z,21.27
2023-01-20T12:17:10.672Z,20.93
2023-01-20T12:19:50.272Z,23.00
2023-01-20T12:22:26.284Z,21.97
2023-01-20T12:25:09.235Z,20.13
2023-01-20T12:27:45.677Z,23.87
2023-01-20T12:30:39.725Z,20.77
2023-01-20T12:33:22.312Z,26.43
2023-01-20T12:36:25.297Z,77.83
2023-01-20T12:39:21.336Z,60.23
2023-01-20T12:42:34.514Z,49.30
2023-01-20T12:45:11.933Z,38.40
2023-01-20T12:47:57.070Z,43.70
2023-01-20T12:50:33.803Z,37.37
2023-01-20T12:53:20.275Z,33.50
2023-01-20T12:56:01.563Z,29.73
2023-01-20T12:58:44.955Z,28.43
2023-01-20T13:01:43.003Z,36.23
2023-01-20T13:04:50.971Z,28.70
2023-01-20T13:07:52.035Z,33.97
2023-01-20T13:10:50.187Z,27.13
2023-01-20T13:13:56.021Z,29.17
2023-01-20T13:16:33.921Z,27.40
2023-01-20T13:19:10.333Z,25.00
2023-01-20T13:21:41.517Z,26.77
2023-01-20T13:24:19.256Z,26.87
2023-01-20T13:26:49.773Z,30.03
2023-01-20T13:29:42.047Z,28.83
2023-01-20T13:32:33.479Z,31.50
2023-01-20T13:35:03.407Z,32.53
2023-01-20T13:37:59.547Z,33.73
2023-01-20T13:40:57.159Z,31.13
2023-01-20T13:43:59.517Z,31.47
2023-01-20T13:46:58.570Z,33.50
2023-01-20T13:50:03.022Z,38.70
2023-01-20T13:53:25.261Z,38.47
2023-01-20T13:56:14.625Z,36.87
2023-01-20T13:58:46.711Z,34.13
2023-01-20T14:01:36.096Z,35.90
2023-01-20T14:04:08.547Z,31.30
2023-01-20T14:06:46.084Z,32.23
2023-01-20T14:09:22.347Z,27.37
2023-01-20T14:11:53.027Z,29.67
2023-01-20T14:14:23.372Z,33.37
2023-01-20T14:16:52.677Z,26.33
2023-01-20T14:19:27.828Z,29.67
2023-01-20T14:21:58.450Z,25.60
2023-01-20T14:24:29.708Z,28.60
2023-01-20T14:27:10.195Z,27.40
2023-01-20T14:29:41.026Z,26.83
2023-01-20T14:32:22.159Z,28.50
2023-01-20T14:34:53.815Z,32.23
2023-01-20T14:37:28.870Z,26.60
2023-01-20T14:40:00.350Z,30.83
2023-01-20T14:42:31.586Z,28.93
2023-01-20T14:45:00.596Z,28.60
2023-01-20T14:47:30.587Z,28.63
2023-01-20T14:50:01.089Z,33.80
2023-01-20T14:52:32.798Z,32.47
2023-01-20T14:55:01.668Z,31.37
2023-01-20T14:57:32.152Z,28.70
2023-01-20T15:00:18.188Z,30.13
2023-01-20T15:03:09.249Z,30.40
2023-01-20T15:05:43.469Z,35.00
2023-01-20T15:08:26.041Z,33.07
2023-01-20T15:11:21.658Z,30.63
2023-01-20T15:14:10.513Z,32.40
2023-01-20T15:16:49.726Z,37.67
2023-01-20T15:19:33.051Z,31.70
2023-01-20T15:22:27.631Z,37.37
2023-01-20T15:24:56.809Z,36.10
2023-01-20T15:27:32.473Z,38.50
2023-01-20T15:30:04.272Z,36.07
2023-01-20T15:32:33.200Z,34.53
2023-01-20T15:35:02.626Z,43.90
2023-01-20T15:37:32.930Z,43.03
2023-01-20T15:40:01.947Z,43.70
2023-01-20T15:42:30.987Z,40.40
2023-01-20T15:45:00.347Z,38.87
2023-01-20T15:47:31.497Z,41.90
2023-01-20T15:50:00.330Z,39.67
2023-01-20T15:52:29.225Z,38.80
2023-01-20T15:54:59.415Z,34.40
2023-01-20T15:57:28.199Z,41.47
2023-01-20T15:59:57.228Z,33.90
2023-01-20T16:02:26.047Z,39.00
2023-01-20T16:04:55.067Z,37.77
2023-01-20T16:07:24.119Z,38.33
2023-01-20T16:09:53.032Z,42.60
2023-01-20T16:12:23.521Z,37.80
2023-01-20T16:14:52.347Z,44.13
2023-01-20T16:17:22.719Z,47.73
2023-01-20T16:19:52.427Z,45.17
2023-01-20T16:22:21.567Z,47.90
2023-01-20T16:24:51.559Z,47.80
2023-01-20T16:27:23.786Z,50.43
2023-01-20T16:29:53.385Z,46.73
2023-01-20T16:32:24.687Z,55.77
2023-01-20T16:34:53.569Z,48.33
2023-01-20T16:37:22.300Z,50.93
2023-01-20T16:39:51.192Z,54.63
2023-01-20T16:42:21.993Z,48.43
2023-01-20T16:44:54.812Z,58.37
2023-01-20T16:47:24.939Z,54.90
2023-01-20T16:49:53.789Z,60.07
2023-01-20T16:52:23.394Z,52.67
2023-01-20T16:54:52.788Z,57.10
2023-01-20T16:57:21.738Z,59.77
2023-01-20T16:59:52.100Z,58.87
2023-01-20T17:02:21.138Z,62.50
2023-01-20T17:04:50.989Z,63.37
2023-01-20T17:07:20.349Z,64.60
2023-01-20T17:09:49.445Z,64.20
2023-01-20T17:12:19.156Z,63.67
2023-01-20T17:14:48.354Z,64.03
2023-01-20T17:17:19.333Z,63.17
2023-01-20T17:19:48.402Z,69.00
2023-01-20T17:22:18.699Z,66.13
2023-01-20T17:24:47.638Z,64.10
2023-01-20T17:27:17.518Z,72.03
2023-01-20T17:29:46.474Z,80.63
2023-01-20T17:32:16.340Z,74.27
2023-01-20T17:34:47.033Z,75.17
2023-01-20T17:37:17.468Z,89.33
2023-01-20T17:39:46.844Z,85.57
2023-01-20T17:42:17.684Z,79.50
2023-01-20T17:44:47.278Z,88.03
2023-01-20T17:47:17.564Z,79.40
2023-01-20T17:49:48.799Z,79.87
2023-01-20T17:52:20.315Z,82.87
2023-01-20T17:54:49.998Z,87.53
2023-01-20T17:57:18.813Z,84.47
2023-01-20T17:59:49.367Z,88.33
2023-01-20T18:02:21.745Z,84.70
2023-01-20T18:04:52.553Z,79.53
2023-01-20T18:07:22.230Z,74.63
2023-01-20T18:09:52.385Z,83.60
2023-01-20T18:12:22.687Z,81.77
2023-01-20T18:14:55.092Z,75.47
2023-01-20T18:17:24.021Z,75.33
2023-01-20T18:19:58.257Z,81.47
2023-01-20T18:22:28.224Z,66.20
2023-01-20T18:24:58.533Z,69.60
2023-01-20T18:27:29.661Z,73.63
2023-01-20T18:29:59.086Z,66.37
2023-01-20T18:32:29.933Z,67.57
2023-01-20T18:35:02.028Z,74.57
2023-01-20T18:37:33.391Z,75.17
2023-01-20T18:40:03.220Z,75.53
2023-01-20T18:42:32.842Z,74.00
2023-01-20T18:45:01.817Z,74.57
2023-01-20T18:47:32.384Z,78.73
2023-01-20T18:50:03.493Z,75.90
2023-01-20T18:52:34.565Z,77.77
2023-01-20T18:55:03.831Z,80.20
2023-01-20T18:57:34.311Z,88.93
2023-01-20T19:00:05.505Z,72.33
2023-01-20T19:02:39.034Z,73.47
2023-01-20T19:05:12.129Z,70.90
2023-01-20T19:07:42.024Z,74.17
2023-01-20T19:10:13.624Z,69.40
2023-01-20T19:12:44.929Z,75.70
2023-01-20T19:15:17.185Z,79.30
2023-01-20T19:17:48.483Z,72.70
2023-01-20T19:20:21.664Z,78.20
2023-01-20T19:22:52.428Z,66.13
2023-01-20T19:25:30.141Z,79.70
2023-01-20T19:28:01.282Z,75.30
2023-01-20T19:30:31.718Z,73.20
2023-01-20T19:33:01.744Z,73.40
2023-01-20T19:35:42.463Z,79.03
2023-01-20T19:38:13.736Z,81.37
2023-01-20T19:40:43.636Z,74.93
2023-01-20T19:43:14.033Z,87.80
2023-01-20T19:45:46.224Z,78.03
2023-01-20T19:48:16.923Z,81.13
2023-01-20T19:50:49.758Z,75.40
2023-01-20T19:53:24.701Z,88.60
2023-01-20T19:55:56.781Z,98.13
2023-01-20T19:58:26.894Z,89.07
2023-01-20T20:00:57.741Z,75.70
2023-01-20T20:03:29.901Z,85.83
2023-01-20T20:06:01.054Z,79.17
2023-01-20T20:08:31.140Z,96.60
2023-01-20T20:11:10.746Z,90.67
2023-01-20T20:13:40.857Z,79.00
2023-01-20T20:16:13.807Z,79.87
2023-01-20T20:18:48.399Z,86.13
2023-01-20T20:21:23.776Z,88.90
2023-01-20T20:23:55.422Z,91.87
2023-01-20T20:26:28.577Z,95.47
2023-01-20T20:28:59.095Z,91.07
2023-01-20T20:31:31.172Z,95.00
2023-01-20T20:34:02.074Z,93.37
2023-01-20T20:36:34.538Z,87.00
2023-01-20T20:39:06.050Z,90.73
2023-01-20T20:41:37.385Z,96.60
2023-01-20T20:44:09.256Z,89.70
2023-01-20T20:46:39.802Z,104.63
2023-01-20T20:49:10.783Z,92.97
2023-01-20T20:51:42.389Z,99.33
2023-01-20T20:54:17.536Z,92.13
2023-01-20T20:56:47.593Z,97.90
2023-01-20T20:59:21.752Z,97.23
2023-01-20T21:01:52.677Z,106.77
2023-01-20T21:04:23.464Z,87.13
2023-01-20T21:06:59.253Z,108.37
2023-01-20T21:09:29.885Z,103.63
2023-01-20T21:12:00.193Z,105.43
2023-01-20T21:14:29.997Z,99.63
2023-01-20T21:16:59.981Z,90.27
2023-01-20T21:19:29.413Z,89.70
2023-01-20T21:22:00.217Z,103.20
2023-01-20T21:24:31.839Z,81.50
2023-01-20T21:27:04.948Z,99.00
2023-01-20T21:29:34.389Z,100.17
2023-01-20T21:32:03.357Z,91.87
2023-01-20T21:34:32.261Z,92.90
2023-01-20T21:37:03.146Z,77.73
2023-01-20T21:39:32.838Z,84.57
2023-01-20T21:42:01.760Z,83.60
2023-01-20T21:44:31.186Z,74.27
2023-01-20T21:47:02.773Z,72.60
2023-01-20T21:49:54.487Z,93.87
2023-01-20T21:52:45.814Z,80.47
2023-01-20T21:55:19.538Z,75.47
2023-01-20T21:57:51.219Z,80.73
2023-01-20T22:00:20.873Z,78.07
2023-01-20T22:02:50.135Z,75.27
2023-01-20T22:05:19.269Z,75.27
2023-01-20T22:07:49.508Z,87.10
2023-01-20T22:10:19.415Z,81.13
2023-01-20T22:12:48.139Z,84.53
2023-01-20T22:15:17.025Z,80.97
2023-01-20T22:17:46.280Z,78.13
2023-01-20T22:20:15.345Z,73.07
2023-01-20T22:22:44.572Z,72.47
2023-01-20T22:25:15.274Z,65.37
2023-01-20T22:27:44.165Z,84.30
2023-01-20T22:30:14.205Z,76.20
2023-01-20T22:32:43.295Z,68.87
2023-01-20T22:35:12.231Z,74.17
2023-01-20T22:37:41.078Z,63.93
2023-01-20T22:40:11.133Z,76.03
2023-01-20T22:42:41.343Z,78.10
2023-01-20T22:45:11.729Z,88.60
2023-01-20T22:47:40.506Z,96.57
2023-01-20T22:50:11.703Z,87.90
2023-01-20T22:52:40.515Z,63.90
2023-01-20T22:55:10.064Z,79.47
2023-01-20T22:57:38.868Z,72.43
2023-01-20T23:00:12.509Z,77.73
2023-01-20T23:02:41.333Z,55.60
2023-01-20T23:05:10.596Z,72.60
2023-01-20T23:07:39.597Z,62.77
2023-01-20T23:10:09.668Z,61.27
2023-01-20T23:12:38.559Z,67.60
2023-01-20T23:15:09.835Z,47.77
2023-01-20T23:17:38.683Z,61.03
2023-01-20T23:20:08.457Z,65.70
2023-01-20T23:22:37.292Z,64.73
2023-01-20T23:25:08.649Z,67.93
2023-01-20T23:27:37.461Z,70.83
2023-01-20T23:30:07.272Z,66.53
2023-01-20T23:32:37.699Z,61.57
2023-01-20T23:35:07.523Z,61.70
2023-01-20T23:37:36.326Z,64.20
2023-01-20T23:40:05.516Z,63.63
2023-01-20T23:42:34.362Z,65.50
2023-01-20T23:45:03.192Z,61.77
2023-01-20T23:47:32.091Z,71.23
2023-01-20T23:50:02.349Z,72.97
2023-01-20T23:52:31.113Z,68.50
2023-01-20T23:54:59.926Z,65.63
2023-01-20T23:57:28.826Z,57.90
2023-01-20T23:59:57.605Z,56.10
